Terminal Aerodrome Forecast
Issued by NWS Wilmington, OH

Current Version | Previous Version | Text Only | Print | Product List | Glossary Off
Versions: 1 2 3 4 5 6 7 8 9 10 11 12 13 14 15 16 17 18 19 20 21 22 23

000
FTUS41 KILN 300531
TAFCMH
TAF
KCMH 300531Z 3006/0106 03007KT P6SM OVC120
     FM301500 08009KT P6SM OVC050
     FM301800 11009G17KT 4SM -SHRA BR OVC025
     FM302200 15010KT 2SM -SHRA BR OVC012=

USA.gov is the U.S. government's official web portal to all federal, state and local government web resources and services.